Time;durP1;ratioP1;P1;durP2;ratioP2;P2;SDS_P1;SDS_P2;PMS_P1;PMS_P2;Temp;Humidity;BMP_temperature;BMP_pressure;BME280_temperature;BME280_humidity;BME280_pressure;Samples;Min_cycle;Max_cycle;Signal;HPM_P1;HPM_P2
2023/04/09 00:03:57;;;;;;;5.53;3.30;;;;;;;;;;10413272;28;20477;-50
2023/04/09 00:08:57;;;;;;;5.60;2.90;;;;;;;;;;10412169;28;20029;-52
2023/04/09 00:13:58;;;;;;;5.60;3.15;;;;;;;;;;10412277;28;20017;-51
2023/04/09 00:18:59;;;;;;;4.43;2.65;;;;;;;;;;10395068;28;20037;-52
2023/04/09 00:24:00;;;;;;;6.18;2.83;;;;;;;;;;10412204;28;20033;-54
2023/04/09 00:29:00;;;;;;;5.28;2.85;;;;;;;;;;10414544;28;20029;-51
2023/04/09 00:34:01;;;;;;;3.88;2.85;;;;;;;;;;10411341;28;20083;-51
2023/04/09 00:39:02;;;;;;;4.65;2.92;;;;;;;;;;10413049;28;20033;-52
2023/04/09 00:44:02;;;;;;;9.52;2.72;;;;;;;;;;10403447;28;20540;-51
2023/04/09 00:49:03;;;;;;;5.32;2.60;;;;;;;;;;10412010;28;20048;-54
2023/04/09 00:54:03;;;;;;;4.82;2.85;;;;;;;;;;10391788;28;20044;-50
2023/04/09 00:59:04;;;;;;;6.47;2.78;;;;;;;;;;10381079;28;20091;-50
2023/04/09 01:04:05;;;;;;;4.82;2.28;;;;;;;;;;10373062;28;20026;-52
2023/04/09 01:09:21;;;;;;;4.60;2.60;;;;;;;;;;10374590;28;20155;-51
2023/04/09 01:14:56;;;;;;;4.65;2.83;;;;;;;;;;10386659;28;20022;-48
2023/04/09 01:20:07;;;;;;;2.97;2.50;;;;;;;;;;10357247;28;20041;-52
2023/04/09 01:25:29;;;;;;;3.80;2.33;;;;;;;;;;10385447;28;20101;-50
2023/04/09 01:30:30;;;;;;;3.65;2.65;;;;;;;;;;10372243;28;20030;-52
2023/04/09 01:35:31;;;;;;;3.83;2.45;;;;;;;;;;10385452;28;20042;-51
2023/04/09 01:40:32;;;;;;;5.88;2.30;;;;;;;;;;10378426;28;20026;-48
2023/04/09 01:45:33;;;;;;;2.92;2.35;;;;;;;;;;10384405;28;20017;-51
2023/04/09 01:50:34;;;;;;;4.20;2.70;;;;;;;;;;10388551;28;20157;-51
2023/04/09 01:55:35;;;;;;;4.40;2.58;;;;;;;;;;10396696;28;20411;-51
2023/04/09 02:00:41;;;;;;;4.70;2.38;;;;;;;;;;10372131;28;20022;-50
2023/04/09 02:05:51;;;;;;;3.85;2.40;;;;;;;;;;10382485;28;20548;-53
2023/04/09 02:10:57;;;;;;;4.18;2.58;;;;;;;;;;10388163;28;20026;-51
2023/04/09 02:15:59;;;;;;;4.90;2.60;;;;;;;;;;10384027;28;20056;-47
2023/04/09 02:21:00;;;;;;;3.58;2.20;;;;;;;;;;10388258;28;20445;-51
2023/04/09 02:26:01;;;;;;;4.15;2.60;;;;;;;;;;10383032;28;20021;-48
2023/04/09 02:31:02;;;;;;;5.82;2.58;;;;;;;;;;10383079;28;20022;-52
2023/04/09 02:36:04;;;;;;;3.47;2.40;;;;;;;;;;10392142;28;20029;-51
2023/04/09 02:41:04;;;;;;;6.32;2.17;;;;;;;;;;10379613;28;20022;-51
2023/04/09 02:46:06;;;;;;;3.00;2.20;;;;;;;;;;10390813;28;20466;-52
2023/04/09 02:51:07;;;;;;;3.67;2.42;;;;;;;;;;10388295;28;20050;-50
2023/04/09 02:56:07;;;;;;;3.88;2.53;;;;;;;;;;10401344;28;20021;-52
2023/04/09 03:01:08;;;;;;;2.78;2.08;;;;;;;;;;10379713;28;20029;-51
2023/04/09 03:06:08;;;;;;;3.03;2.22;;;;;;;;;;10391445;28;20524;-51
2023/04/09 03:11:09;;;;;;;3.67;2.33;;;;;;;;;;10379472;28;20493;-52
2023/04/09 03:16:10;;;;;;;2.53;2.10;;;;;;;;;;10394811;28;20026;-51
2023/04/09 03:21:10;;;;;;;3.33;2.40;;;;;;;;;;10392649;28;20056;-50
2023/04/09 03:26:11;;;;;;;3.65;2.25;;;;;;;;;;10378185;28;20150;-52
2023/04/09 03:31:12;;;;;;;2.15;1.75;;;;;;;;;;10376683;28;20367;-49
2023/04/09 03:36:13;;;;;;;3.55;2.33;;;;;;;;;;10390341;28;20109;-50
2023/04/09 03:41:14;;;;;;;3.20;2.00;;;;;;;;;;10374612;28;20488;-53
2023/04/09 03:46:16;;;;;;;2.80;2.50;;;;;;;;;;10376927;28;20389;-48
2023/04/09 03:51:17;;;;;;;5.68;2.00;;;;;;;;;;10378680;28;20580;-50
2023/04/09 03:56:17;;;;;;;2.90;2.00;;;;;;;;;;10380172;28;20470;-50
2023/04/09 04:01:18;;;;;;;2.63;2.00;;;;;;;;;;10376025;28;20033;-51
2023/04/09 04:06:19;;;;;;;3.15;1.98;;;;;;;;;;10387220;28;20033;-56
2023/04/09 04:11:19;;;;;;;2.13;1.92;;;;;;;;;;10387421;28;20038;-51
2023/04/09 04:16:20;;;;;;;6.78;2.25;;;;;;;;;;10375356;28;20057;-52
2023/04/09 04:21:20;;;;;;;2.38;1.85;;;;;;;;;;10400252;28;20541;-51
2023/04/09 04:26:21;;;;;;;2.83;1.80;;;;;;;;;;10376579;28;20026;-49
2023/04/09 04:31:22;;;;;;;2.25;1.98;;;;;;;;;;10375844;28;20092;-50
2023/04/09 04:36:22;;;;;;;2.20;1.80;;;;;;;;;;10374854;28;20051;-49
2023/04/09 04:41:23;;;;;;;1.98;1.65;;;;;;;;;;10386479;28;20058;-50
2023/04/09 04:46:23;;;;;;;4.25;2.00;;;;;;;;;;10375236;28;20378;-51
2023/04/09 04:51:26;;;;;;;4.95;1.90;;;;;;;;;;10373229;28;20076;-51
2023/04/09 04:56:26;;;;;;;12.50;2.00;;;;;;;;;;10388438;28;20035;-50
2023/04/09 05:01:27;;;;;;;13.70;2.15;;;;;;;;;;10398331;28;20021;-51
2023/04/09 05:06:28;;;;;;;6.60;2.00;;;;;;;;;;10386617;28;20026;-55
2023/04/09 05:11:29;;;;;;;3.47;2.20;;;;;;;;;;10385253;28;20413;-52
2023/04/09 05:16:30;;;;;;;8.45;1.90;;;;;;;;;;10376786;28;20029;-51
2023/04/09 05:21:31;;;;;;;3.38;1.80;;;;;;;;;;10385319;28;20116;-51
2023/04/09 05:26:31;;;;;;;2.55;2.10;;;;;;;;;;10377269;28;20022;-52
2023/04/09 05:31:33;;;;;;;11.90;2.05;;;;;;;;;;10371602;28;20033;-50
2023/04/09 05:36:34;;;;;;;13.02;2.08;;;;;;;;;;10388439;28;20024;-50
2023/04/09 05:41:36;;;;;;;11.73;2.30;;;;;;;;;;10408305;28;20397;-49
2023/04/09 05:46:37;;;;;;;3.00;2.10;;;;;;;;;;10385230;28;20026;-48
2023/04/09 05:51:37;;;;;;;7.43;1.92;;;;;;;;;;10377942;28;20418;-50
2023/04/09 05:56:38;;;;;;;1.92;1.50;;;;;;;;;;10387046;28;20017;-54
2023/04/09 06:01:38;;;;;;;7.50;1.98;;;;;;;;;;10371871;28;20022;-49
2023/04/09 06:06:39;;;;;;;2.53;1.63;;;;;;;;;;10383911;28;20056;-51
2023/04/09 06:11:40;;;;;;;6.55;1.92;;;;;;;;;;10371214;28;20037;-51
2023/04/09 06:16:40;;;;;;;5.05;1.95;;;;;;;;;;10395720;28;20018;-50
2023/04/09 06:21:41;;;;;;;4.10;2.00;;;;;;;;;;10371722;28;20378;-49
2023/04/09 06:26:43;;;;;;;11.43;3.08;;;;;;;;;;10384326;28;20057;-51
2023/04/09 06:31:43;;;;;;;2.33;2.10;;;;;;;;;;10371759;28;20508;-50
2023/04/09 06:36:44;;;;;;;7.88;2.08;;;;;;;;;;10371609;28;20022;-51
2023/04/09 06:41:45;;;;;;;4.03;1.92;;;;;;;;;;10370632;28;20355;-52
2023/04/09 06:46:46;;;;;;;1.83;1.60;;;;;;;;;;10391358;28;20017;-50
2023/04/09 06:51:46;;;;;;;4.22;2.05;;;;;;;;;;10387896;28;20386;-49
2023/04/09 06:56:47;;;;;;;11.15;2.30;;;;;;;;;;10390190;28;20033;-51
2023/04/09 07:01:48;;;;;;;3.72;1.75;;;;;;;;;;10371718;28;20036;-52
2023/04/09 07:06:48;;;;;;;5.57;1.70;;;;;;;;;;10373253;28;20018;-52
2023/04/09 07:11:49;;;;;;;3.50;1.98;;;;;;;;;;10369557;28;20037;-52
2023/04/09 07:16:49;;;;;;;6.13;1.92;;;;;;;;;;10372881;28;20087;-52
2023/04/09 07:21:50;;;;;;;3.88;1.80;;;;;;;;;;10377091;28;20375;-49
2023/04/09 07:26:52;;;;;;;4.25;1.50;;;;;;;;;;10391462;28;20397;-49
2023/04/09 07:31:53;;;;;;;1.52;1.42;;;;;;;;;;10376863;28;20181;-47
2023/04/09 07:36:54;;;;;;;2.42;1.40;;;;;;;;;;10377546;28;20026;-49
2023/04/09 07:41:56;;;;;;;2.72;1.67;;;;;;;;;;10390420;28;20029;-50
2023/04/09 07:46:56;;;;;;;1.75;1.40;;;;;;;;;;10375928;28;20026;-50
2023/04/09 07:51:59;;;;;;;1.50;1.40;;;;;;;;;;10379891;28;20037;-49
2023/04/09 07:57:03;;;;;;;2.20;1.60;;;;;;;;;;10383283;28;20367;-50
2023/04/09 08:02:03;;;;;;;2.10;1.58;;;;;;;;;;10390013;28;20022;-51
2023/04/09 08:07:04;;;;;;;2.47;1.45;;;;;;;;;;10375283;28;20029;-51
2023/04/09 08:12:05;;;;;;;1.65;1.40;;;;;;;;;;10375301;28;20033;-50
2023/04/09 08:17:05;;;;;;;2.83;1.65;;;;;;;;;;10376862;28;20026;-56
2023/04/09 08:22:06;;;;;;;3.80;1.90;;;;;;;;;;10413045;28;20026;-49
2023/04/09 08:27:07;;;;;;;3.33;1.60;;;;;;;;;;10373899;28;20240;-51
2023/04/09 08:32:07;;;;;;;1.40;1.30;;;;;;;;;;10375284;28;20525;-46
2023/04/09 08:37:08;;;;;;;2.28;1.40;;;;;;;;;;10387733;28;20389;-51
2023/04/09 08:42:11;;;;;;;2.00;1.40;;;;;;;;;;10387260;28;20088;-50
2023/04/09 08:47:12;;;;;;;2.80;1.48;;;;;;;;;;10385236;28;20042;-51
2023/04/09 08:52:15;;;;;;;2.10;1.63;;;;;;;;;;10372340;28;20042;-50
2023/04/09 08:57:16;;;;;;;3.17;1.35;;;;;;;;;;10381033;28;20061;-51
2023/04/09 09:02:17;;;;;;;3.83;1.48;;;;;;;;;;10374073;28;20448;-47
2023/04/09 09:07:17;;;;;;;1.83;1.40;;;;;;;;;;10373242;28;20034;-50
2023/04/09 09:12:40;;;;;;;5.07;1.73;;;;;;;;;;10374616;28;20444;-47
2023/04/09 09:17:57;;;;;;;1.30;1.20;;;;;;;;;;10386477;28;20021;-51
2023/04/09 09:22:58;;;;;;;2.83;1.52;;;;;;;;;;10372612;28;20029;-50
2023/04/09 09:28:11;;;;;;;1.98;1.40;;;;;;;;;;10385387;28;20018;-52
2023/04/09 09:33:12;;;;;;;2.03;1.35;;;;;;;;;;10384850;28;20037;-54
2023/04/09 09:38:14;;;;;;;1.70;1.40;;;;;;;;;;10371823;28;20030;-51
2023/04/09 09:43:15;;;;;;;2.42;1.42;;;;;;;;;;10385065;28;20112;-50
2023/04/09 09:48:15;;;;;;;2.63;1.20;;;;;;;;;;10386046;28;20367;-52
2023/04/09 09:53:21;;;;;;;1.40;1.30;;;;;;;;;;10391990;28;20048;-51
2023/04/09 09:58:30;;;;;;;1.33;1.23;;;;;;;;;;10383958;28;20386;-49
2023/04/09 10:03:33;;;;;;;1.65;1.42;;;;;;;;;;10385936;28;20504;-50
2023/04/09 10:08:36;;;;;;;2.33;1.50;;;;;;;;;;10371760;28;20026;-47
2023/04/09 10:13:50;;;;;;;1.58;1.35;;;;;;;;;;10371191;28;20034;-51
2023/04/09 10:18:51;;;;;;;1.52;1.30;;;;;;;;;;10370042;28;20030;-49
2023/04/09 10:23:52;;;;;;;2.92;1.65;;;;;;;;;;10369916;28;20089;-51
2023/04/09 10:29:12;;;;;;;1.85;1.25;;;;;;;;;;10382602;28;20053;-49
2023/04/09 10:34:19;;;;;;;1.42;1.33;;;;;;;;;;10372658;28;20980;-51
2023/04/09 10:39:24;;;;;;;1.70;1.48;;;;;;;;;;10381503;28;20040;-50
2023/04/09 10:44:27;;;;;;;3.33;1.30;;;;;;;;;;10382870;28;20025;-51
2023/04/09 10:49:36;;;;;;;1.30;1.20;;;;;;;;;;10370436;28;20124;-51
2023/04/09 10:54:38;;;;;;;2.33;1.50;;;;;;;;;;10387549;28;20192;-52
2023/04/09 10:59:41;;;;;;;2.17;1.17;;;;;;;;;;10403575;28;20473;-50
2023/04/09 11:05:17;;;;;;;1.45;1.10;;;;;;;;;;10378609;28;20018;-55
2023/04/09 11:10:19;;;;;;;1.30;1.20;;;;;;;;;;10376447;28;20378;-50
2023/04/09 11:15:20;;;;;;;1.40;1.30;;;;;;;;;;10378522;28;20434;-51
2023/04/09 11:20:24;;;;;;;1.73;1.63;;;;;;;;;;10402912;28;20030;-50
2023/04/09 11:25:30;;;;;;;1.33;1.23;;;;;;;;;;10378038;28;20462;-51
2023/04/09 11:30:33;;;;;;;1.17;1.13;;;;;;;;;;10377303;28;20034;-50
2023/04/09 11:35:35;;;;;;;1.10;1.10;;;;;;;;;;10377506;28;20084;-50
2023/04/09 11:40:42;;;;;;;1.55;1.38;;;;;;;;;;10387459;28;20079;-55
2023/04/09 11:45:43;;;;;;;1.83;1.40;;;;;;;;;;10392213;28;20022;-50
2023/04/09 11:50:44;;;;;;;1.55;1.30;;;;;;;;;;10375291;28;20038;-50
2023/04/09 11:55:49;;;;;;;1.17;1.08;;;;;;;;;;10384566;28;20030;-47
2023/04/09 12:00:55;;;;;;;1.25;1.15;;;;;;;;;;10380956;28;20018;-51
2023/04/09 12:05:55;;;;;;;3.42;1.27;;;;;;;;;;10374573;28;20462;-52
2023/04/09 12:10:56;;;;;;;1.48;1.20;;;;;;;;;;10378352;28;20026;-53
2023/04/09 12:15:59;;;;;;;1.20;1.10;;;;;;;;;;10376841;28;20045;-51
2023/04/09 12:21:01;;;;;;;1.50;1.40;;;;;;;;;;10387043;28;20160;-48
2023/04/09 12:26:02;;;;;;;1.25;1.15;;;;;;;;;;10375929;28;20095;-51
2023/04/09 12:31:02;;;;;;;1.23;1.13;;;;;;;;;;10379471;28;20026;-50
2023/04/09 12:36:03;;;;;;;1.38;1.25;;;;;;;;;;10384268;28;20444;-55
2023/04/09 12:41:04;;;;;;;1.50;1.10;;;;;;;;;;10375308;28;20049;-49
2023/04/09 12:46:05;;;;;;;1.40;1.25;;;;;;;;;;10387057;28;20025;-49
2023/04/09 12:51:06;;;;;;;1.30;1.20;;;;;;;;;;10386673;28;20045;-50
2023/04/09 12:56:07;;;;;;;1.15;1.02;;;;;;;;;;10379676;28;20034;-51
2023/04/09 13:01:07;;;;;;;1.17;1.10;;;;;;;;;;10374710;28;20398;-50
2023/04/09 13:06:08;;;;;;;1.10;1.00;;;;;;;;;;10387587;28;20022;-53
2023/04/09 13:11:08;;;;;;;1.13;1.10;;;;;;;;;;10373668;28;20029;-51
2023/04/09 13:16:09;;;;;;;1.20;1.20;;;;;;;;;;10385277;28;20030;-51
2023/04/09 13:21:09;;;;;;;1.10;1.10;;;;;;;;;;10385605;28;20026;-49
2023/04/09 13:26:10;;;;;;;1.30;1.20;;;;;;;;;;10371747;28;20037;-48
2023/04/09 13:31:11;;;;;;;1.17;1.17;;;;;;;;;;10387296;28;20038;-52
2023/04/09 13:36:11;;;;;;;1.42;1.25;;;;;;;;;;10374034;28;20025;-50
2023/04/09 13:41:12;;;;;;;1.13;1.08;;;;;;;;;;10373450;28;20434;-51
2023/04/09 13:46:13;;;;;;;1.20;1.10;;;;;;;;;;10387565;28;20370;-50
2023/04/09 13:51:13;;;;;;;2.45;1.25;;;;;;;;;;10394981;28;20045;-51
2023/04/09 13:56:14;;;;;;;1.23;1.15;;;;;;;;;;10377452;28;20026;-49
2023/04/09 14:01:15;;;;;;;1.17;1.08;;;;;;;;;;10371171;28;20030;-54
2023/04/09 14:06:16;;;;;;;1.13;1.10;;;;;;;;;;10382146;28;20474;-53
2023/04/09 14:11:16;;;;;;;1.10;1.02;;;;;;;;;;10387754;28;20224;-51
2023/04/09 14:16:18;;;;;;;1.48;1.10;;;;;;;;;;10373066;28;20022;-48
2023/04/09 14:21:18;;;;;;;1.30;1.20;;;;;;;;;;10383545;28;20299;-52
2023/04/09 14:26:19;;;;;;;1.15;1.10;;;;;;;;;;10386064;28;20370;-53
2023/04/09 14:31:20;;;;;;;1.17;1.08;;;;;;;;;;10373019;28;20029;-54
2023/04/09 14:36:20;;;;;;;1.00;1.00;;;;;;;;;;10384872;28;20049;-48
2023/04/09 14:41:21;;;;;;;2.75;1.50;;;;;;;;;;10372588;28;20049;-51
2023/04/09 14:46:21;;;;;;;1.20;1.10;;;;;;;;;;10371231;28;20022;-50
2023/04/09 14:51:22;;;;;;;1.15;1.10;;;;;;;;;;10387293;23;20502;-73
2023/04/09 14:56:26;;;;;;;1.05;1.05;;;;;;;;;;10409816;28;20496;-60
2023/04/09 15:01:27;;;;;;;1.45;1.15;;;;;;;;;;10407322;28;20123;-72
2023/04/09 15:06:28;;;;;;;1.10;1.10;;;;;;;;;;10395128;28;20080;-73
2023/04/09 15:11:29;;;;;;;0.98;0.98;;;;;;;;;;10395180;28;20201;-70
2023/04/09 15:16:32;;;;;;;1.20;1.10;;;;;;;;;;10407403;28;20204;-73
2023/04/09 15:21:32;;;;;;;0.98;0.98;;;;;;;;;;10408242;28;20431;-74
2023/04/09 15:26:33;;;;;;;1.45;1.10;;;;;;;;;;10395655;28;20104;-68
2023/04/09 15:31:34;;;;;;;1.00;1.00;;;;;;;;;;10406241;28;20374;-73
2023/04/09 15:36:34;;;;;;;1.20;0.93;;;;;;;;;;10387888;28;20473;-69
2023/04/09 15:41:35;;;;;;;1.17;1.13;;;;;;;;;;10397184;28;20022;-72
2023/04/09 15:46:39;;;;;;;1.30;1.20;;;;;;;;;;10408763;28;20026;-73
2023/04/09 15:51:40;;;;;;;1.30;1.20;;;;;;;;;;10405308;28;20116;-69
2023/04/09 15:56:41;;;;;;;1.10;1.08;;;;;;;;;;10411102;28;20072;-60
2023/04/09 16:01:41;;;;;;;1.00;1.00;;;;;;;;;;10414033;28;20171;-68
2023/04/09 16:06:42;;;;;;;1.30;1.20;;;;;;;;;;10414016;28;20091;-71
2023/04/09 16:11:42;;;;;;;1.20;1.10;;;;;;;;;;10400970;28;20026;-69
2023/04/09 16:16:48;;;;;;;0.98;0.98;;;;;;;;;;10413670;28;20037;-72
2023/04/09 16:21:48;;;;;;;1.10;1.10;;;;;;;;;;10411946;28;20044;-73
2023/04/09 16:26:49;;;;;;;1.13;1.10;;;;;;;;;;10413312;28;20021;-73
2023/04/09 16:31:51;;;;;;;1.00;1.00;;;;;;;;;;10412484;28;20033;-73
2023/04/09 16:36:51;;;;;;;0.90;0.90;;;;;;;;;;10412946;28;20029;-73
2023/04/09 16:41:52;;;;;;;1.42;1.20;;;;;;;;;;10412110;28;20036;-59
2023/04/09 16:46:52;;;;;;;1.10;1.00;;;;;;;;;;10399648;28;20555;-71
2023/04/09 16:51:53;;;;;;;1.10;1.10;;;;;;;;;;10407741;28;20587;-73
2023/04/09 16:56:56;;;;;;;1.20;1.20;;;;;;;;;;10409360;28;20082;-60
2023/04/09 17:01:56;;;;;;;1.02;1.02;;;;;;;;;;10411553;28;20175;-74
2023/04/09 17:06:57;;;;;;;1.30;1.20;;;;;;;;;;10411382;28;20067;-73
2023/04/09 17:11:58;;;;;;;1.13;1.08;;;;;;;;;;10410702;28;20577;-74
2023/04/09 17:16:59;;;;;;;1.02;1.02;;;;;;;;;;10398085;28;20040;-72
2023/04/09 17:21:59;;;;;;;0.95;0.95;;;;;;;;;;10410876;28;20022;-71
2023/04/09 17:27:00;;;;;;;1.10;1.10;;;;;;;;;;10409960;28;20022;-72
2023/04/09 17:32:00;;;;;;;1.20;1.10;;;;;;;;;;10396710;28;20040;-74
2023/04/09 17:37:01;;;;;;;0.90;0.90;;;;;;;;;;10410554;28;20091;-74
2023/04/09 17:42:03;;;;;;;1.20;1.10;;;;;;;;;;10410311;28;20057;-73
2023/04/09 17:47:06;;;;;;;0.90;0.90;;;;;;;;;;10397836;28;20053;-73
2023/04/09 17:52:06;;;;;;;1.00;1.00;;;;;;;;;;10387606;28;20041;-72
2023/04/09 17:57:07;;;;;;;1.85;1.00;;;;;;;;;;10407072;28;20025;-59
2023/04/09 18:02:07;;;;;;;0.90;0.90;;;;;;;;;;10404960;28;20033;-72
2023/04/09 18:07:08;;;;;;;1.10;1.00;;;;;;;;;;10401043;28;20025;-72
2023/04/09 18:12:08;;;;;;;1.10;1.00;;;;;;;;;;10406809;28;20064;-72
2023/04/09 18:17:09;;;;;;;1.10;1.00;;;;;;;;;;10386545;28;20437;-72
2023/04/09 18:22:10;;;;;;;1.20;1.15;;;;;;;;;;10384570;28;20449;-75
2023/04/09 18:27:10;;;;;;;1.15;1.10;;;;;;;;;;10408601;28;20184;-73
2023/04/09 18:32:11;;;;;;;5.35;1.05;;;;;;;;;;10405427;28;20390;-71
2023/04/09 18:37:12;;;;;;;1.33;1.27;;;;;;;;;;10395017;28;20466;-73
2023/04/09 18:42:13;;;;;;;1.13;1.10;;;;;;;;;;10383833;28;20037;-73
2023/04/09 18:47:14;;;;;;;1.45;1.00;;;;;;;;;;10406166;28;20087;-73
2023/04/09 18:52:14;;;;;;;1.05;1.00;;;;;;;;;;10398927;28;20532;-69
2023/04/09 18:57:15;;;;;;;1.75;1.60;;;;;;;;;;10410333;28;20385;-59
2023/04/09 19:02:16;;;;;;;3.67;3.00;;;;;;;;;;10408084;28;20452;-60
2023/04/09 19:07:18;;;;;;;20.90;5.50;;;;;;;;;;10404040;28;20494;-60
2023/04/09 19:12:18;;;;;;;34.70;6.82;;;;;;;;;;10404071;28;20041;-60
2023/04/09 19:17:19;;;;;;;10.75;6.05;;;;;;;;;;10403107;28;20465;-59
2023/04/09 19:22:20;;;;;;;12.98;5.50;;;;;;;;;;10405856;28;20474;-59
2023/04/09 19:27:21;;;;;;;12.27;5.20;;;;;;;;;;10402801;28;20083;-64
2023/04/09 19:32:22;;;;;;;11.02;5.22;;;;;;;;;;10389654;28;20026;-64
2023/04/09 19:37:26;;;;;;;8.63;5.70;;;;;;;;;;10413659;28;20033;-60
2023/04/09 19:42:27;;;;;;;12.27;4.82;;;;;;;;;;10397356;28;20029;-60
2023/04/09 19:47:28;;;;;;;6.97;4.47;;;;;;;;;;10388002;28;20025;-59
2023/04/09 19:52:28;;;;;;;9.18;4.93;;;;;;;;;;10401453;28;20060;-59
2023/04/09 19:57:30;;;;;;;8.85;4.35;;;;;;;;;;10388915;28;20389;-60
2023/04/09 20:02:31;;;;;;;7.45;4.82;;;;;;;;;;10375848;28;20425;-72
2023/04/09 20:07:31;;;;;;;10.75;4.35;;;;;;;;;;10376301;28;20025;-60
2023/04/09 20:12:33;;;;;;;12.07;4.50;;;;;;;;;;10401905;28;20033;-72
2023/04/09 20:17:34;;;;;;;5.72;3.95;;;;;;;;;;10381664;28;20036;-72
2023/04/09 20:22:35;;;;;;;7.38;4.47;;;;;;;;;;10377729;28;20049;-71
2023/04/09 20:27:36;;;;;;;5.63;3.78;;;;;;;;;;10375909;28;20021;-69
2023/04/09 20:32:37;;;;;;;6.03;3.60;;;;;;;;;;10380400;28;20030;-71
2023/04/09 20:37:37;;;;;;;9.23;3.63;;;;;;;;;;10406272;28;20021;-60
2023/04/09 20:42:40;;;;;;;5.00;4.03;;;;;;;;;;10408185;28;20071;-72
2023/04/09 20:47:40;;;;;;;4.88;3.53;;;;;;;;;;10399715;28;20035;-62
2023/04/09 20:52:42;;;;;;;5.97;3.90;;;;;;;;;;10386337;28;20053;-69
2023/04/09 20:57:42;;;;;;;4.35;3.15;;;;;;;;;;10401022;28;20072;-60
2023/04/09 21:02:43;;;;;;;3.70;3.08;;;;;;;;;;10398142;28;20030;-72
2023/04/09 21:07:43;;;;;;;6.05;3.50;;;;;;;;;;10391595;28;20100;-71
2023/04/09 21:12:44;;;;;;;3.25;2.80;;;;;;;;;;10404449;28;20485;-70
2023/04/09 21:17:45;;;;;;;4.30;3.00;;;;;;;;;;10389508;28;20038;-59
2023/04/09 21:22:46;;;;;;;3.60;3.00;;;;;;;;;;10383637;28;20009;-72
2023/04/09 21:27:47;;;;;;;4.53;2.70;;;;;;;;;;10404085;28;20025;-60
2023/04/09 21:32:47;;;;;;;3.35;2.70;;;;;;;;;;10397321;28;20022;-69
2023/04/09 21:37:48;;;;;;;3.22;2.65;;;;;;;;;;10374235;28;20022;-68
2023/04/09 21:42:49;;;;;;;3.30;2.85;;;;;;;;;;10373219;28;20193;-59
2023/04/09 21:47:49;;;;;;;2.63;2.40;;;;;;;;;;10377205;28;20026;-60
2023/04/09 21:52:50;;;;;;;4.50;3.00;;;;;;;;;;10371965;28;20046;-59
2023/04/09 21:57:54;;;;;;;4.82;2.42;;;;;;;;;;10383547;28;20124;-60
2023/04/09 22:02:59;;;;;;;3.10;2.20;;;;;;;;;;10398099;28;20095;-72
2023/04/09 22:08:00;;;;;;;2.65;2.05;;;;;;;;;;10407285;28;20022;-72
2023/04/09 22:13:01;;;;;;;3.88;2.42;;;;;;;;;;10407606;28;20033;-71
2023/04/09 22:18:01;;;;;;;3.33;2.60;;;;;;;;;;10406980;28;20040;-72
2023/04/09 22:23:02;;;;;;;2.17;1.98;;;;;;;;;;10407437;28;20021;-72
2023/04/09 22:28:04;;;;;;;4.10;2.13;;;;;;;;;;10405715;28;20030;-72
2023/04/09 22:33:05;;;;;;;5.60;2.13;;;;;;;;;;10406501;28;20041;-71
2023/04/09 22:38:06;;;;;;;2.30;2.10;;;;;;;;;;10400344;28;20555;-72
2023/04/09 22:43:06;;;;;;;5.55;2.33;;;;;;;;;;10407444;28;20083;-71
2023/04/09 22:48:07;;;;;;;2.28;2.00;;;;;;;;;;10411113;28;20377;-72
2023/04/09 22:53:07;;;;;;;1.83;1.65;;;;;;;;;;10402609;28;20050;-70
2023/04/09 22:58:08;;;;;;;2.20;2.00;;;;;;;;;;10403298;28;20041;-59
2023/04/09 23:03:09;;;;;;;3.33;2.03;;;;;;;;;;10397013;28;20017;-72
2023/04/09 23:08:10;;;;;;;2.97;1.55;;;;;;;;;;10399529;28;20037;-69
2023/04/09 23:13:12;;;;;;;1.63;1.52;;;;;;;;;;10415829;28;20040;-73
2023/04/09 23:18:13;;;;;;;2.72;2.10;;;;;;;;;;10410458;28;20083;-69
2023/04/09 23:23:14;;;;;;;3.95;2.08;;;;;;;;;;10412553;28;20120;-60
2023/04/09 23:28:14;;;;;;;2.40;1.70;;;;;;;;;;10413635;28;20029;-67
2023/04/09 23:33:15;;;;;;;2.25;1.90;;;;;;;;;;10389822;28;20029;-69
2023/04/09 23:38:15;;;;;;;2.08;1.60;;;;;;;;;;10401340;28;20029;-71
2023/04/09 23:43:17;;;;;;;2.60;1.98;;;;;;;;;;10381836;28;20394;-73
2023/04/09 23:48:18;;;;;;;1.60;1.50;;;;;;;;;;10410475;28;20025;-73
2023/04/09 23:53:18;;;;;;;2.13;1.92;;;;;;;;;;10405054;28;20061;-73
2023/04/09 23:58:20;;;;;;;2.88;1.55;;;;;;;;;;10413776;28;20477;-60
